KPUB/PUB METAR and TAF weather

Enter ICAO airport designator
Station Type Date Time Source
KPUB METAR 2020/08/10 18:53 UTC NOAA

KPUB 101853Z 19012KT 10SM CLR 36/M01 A3006 RMK AO2 SLP101 T03561006


Station Type Date Time Source
KPUB Decoded METAR 2020/08/10 18:53 UTC NOAA

PUEBLO MEMORIAL AIRPORT, CO, United States (KPUB) 38-17N 104-30W 1420M
Aug 10, 2020 - 02:53 PM EDT / 2020.08.10 1853 UTC
Wind: from the S (190 degrees) at 14 MPH (12 KT):0
Visibility: 10 mile(s):0
Sky conditions: clear
Temperature: 96.1 F (35.6 C)
Dew Point: 30.9 F (-0.6 C)
Relative Humidity: 10%
Pressure (altimeter): 30.06 in. Hg (1017 hPa)
ob: KPUB 101853Z 19012KT 10SM CLR 36/M01 A3006 RMK AO2 SLP101 T03561006
cycle: 19

Station Type Date Time Source
KPUB TAF 2020/08/10 18:59 UTC NOAA

TAF
AMD KPUB 101759Z 1018/1118 10010G22KT P6SM SCT140
FM110400 VRB06KT P6SM FEW100

Example: see airport list